createdAt,value
2022-10-18T00:01:11.266Z,94.10
2022-10-18T00:04:42.359Z,94.60
2022-10-18T00:08:13.578Z,95.00
2022-10-18T00:11:45.063Z,94.90
2022-10-18T00:15:17.012Z,94.60
2022-10-18T00:18:48.596Z,95.30
2022-10-18T00:22:19.795Z,94.90
2022-10-18T00:25:52.361Z,94.70
2022-10-18T00:29:25.993Z,94.90
2022-10-18T00:32:58.014Z,95.20
2022-10-18T00:36:29.773Z,95.30
2022-10-18T00:40:00.826Z,95.30
2022-10-18T00:43:33.431Z,95.40
2022-10-18T00:47:29.316Z,95.10
2022-10-18T00:51:01.866Z,95.60
2022-10-18T00:54:32.979Z,96.10
2022-10-18T00:58:04.562Z,96.00
2022-10-18T01:01:35.740Z,96.30
2022-10-18T01:05:06.811Z,95.80
2022-10-18T01:34:07.845Z,97.80
2022-10-18T01:37:42.463Z,95.50
2022-10-18T01:41:15.977Z,96.80
2022-10-18T01:44:51.578Z,96.10
2022-10-18T01:48:24.503Z,96.10
2022-10-18T01:51:57.073Z,97.10
2022-10-18T01:55:41.479Z,96.00
2022-10-18T02:00:01.327Z,97.30
2022-10-18T02:22:27.759Z,95.90
2022-10-18T02:26:01.998Z,95.00
2022-10-18T02:29:33.357Z,94.90
2022-10-18T02:33:48.206Z,94.60
2022-10-18T02:37:27.898Z,96.60
2022-10-18T02:40:59.075Z,96.30
2022-10-18T02:44:29.898Z,94.90
2022-10-18T02:48:00.685Z,95.20
2022-10-18T02:51:31.303Z,95.10
2022-10-18T02:55:02.400Z,95.00
2022-10-18T02:58:32.786Z,95.50
2022-10-18T03:02:03.461Z,95.30
2022-10-18T03:05:34.658Z,95.10
2022-10-18T03:09:05.121Z,95.40
2022-10-18T03:16:11.666Z,95.50
2022-10-18T03:19:42.426Z,95.30
2022-10-18T03:23:13.182Z,95.40
2022-10-18T03:26:44.029Z,95.20
2022-10-18T03:30:14.725Z,95.40
2022-10-18T03:33:46.283Z,95.40
2022-10-18T03:37:16.806Z,95.20
2022-10-18T03:40:47.953Z,95.40
2022-10-18T03:44:18.929Z,95.00
2022-10-18T03:47:49.969Z,95.10
2022-10-18T03:51:20.486Z,95.00
2022-10-18T03:54:51.434Z,95.10
2022-10-18T03:58:22.360Z,95.00
2022-10-18T04:01:53.182Z,95.60
2022-10-18T04:05:24.275Z,95.10
2022-10-18T04:08:55.926Z,96.30
2022-10-18T04:12:27.566Z,95.70
2022-10-18T04:15:58.651Z,95.30
2022-10-18T04:19:30.185Z,95.70
2022-10-18T04:23:01.321Z,96.00
2022-10-18T04:26:32.189Z,95.60
2022-10-18T04:30:03.227Z,96.90
2022-10-18T04:33:34.185Z,95.10
2022-10-18T04:37:05.201Z,95.00
2022-10-18T04:40:36.770Z,95.30
2022-10-18T04:44:07.834Z,94.90
2022-10-18T04:47:39.066Z,94.70
2022-10-18T04:51:10.097Z,95.40
2022-10-18T04:54:41.185Z,94.60
2022-10-18T04:58:12.290Z,93.90
2022-10-18T05:01:43.991Z,94.50
2022-10-18T05:05:14.873Z,94.00
2022-10-18T05:08:46.439Z,94.80
2022-10-18T05:12:17.446Z,93.80
2022-10-18T05:15:48.351Z,93.10
2022-10-18T05:19:19.412Z,93.10
2022-10-18T05:22:50.430Z,93.20
2022-10-18T05:26:22.437Z,93.60
2022-10-18T05:29:53.258Z,93.40
2022-10-18T05:33:24.484Z,93.00
2022-10-18T05:36:55.418Z,93.20
2022-10-18T05:40:26.552Z,93.00
2022-10-18T05:43:57.612Z,93.30
2022-10-18T05:47:28.684Z,93.00
2022-10-18T05:50:59.611Z,92.90
2022-10-18T05:54:30.976Z,92.70
2022-10-18T05:58:02.110Z,93.00
2022-10-18T06:01:35.630Z,92.30
2022-10-18T06:05:06.863Z,92.00
2022-10-18T06:08:37.620Z,91.80
2022-10-18T06:12:09.151Z,91.90
2022-10-18T06:15:40.270Z,91.50
2022-10-18T06:19:12.469Z,91.60
2022-10-18T06:22:34.521Z,91.20
2022-10-18T06:26:08.123Z,94.00
2022-10-18T06:29:39.366Z,91.20
2022-10-18T06:33:10.310Z,90.20
2022-10-18T06:36:44.760Z,90.70
2022-10-18T06:40:15.804Z,89.60
2022-10-18T06:43:46.515Z,87.80
2022-10-18T06:47:18.103Z,82.40
2022-10-18T06:50:48.801Z,82.20
2022-10-18T06:54:29.255Z,83.80
2022-10-18T06:58:00.103Z,84.50
2022-10-18T07:01:42.690Z,83.70
2022-10-18T07:05:20.141Z,83.80
2022-10-18T07:08:51.430Z,84.20
2022-10-18T07:12:22.589Z,83.60
2022-10-18T07:15:53.751Z,83.10
2022-10-18T07:19:26.246Z,82.20
2022-10-18T07:22:57.110Z,81.70
2022-10-18T07:26:40.494Z,80.60
2022-10-18T07:30:13.989Z,80.40
2022-10-18T07:33:47.402Z,78.30
2022-10-18T07:37:20.044Z,77.70
2022-10-18T07:40:51.088Z,77.20
2022-10-18T07:44:23.808Z,77.30
2022-10-18T07:47:54.509Z,76.00
2022-10-18T07:51:27.934Z,77.40
2022-10-18T07:54:59.031Z,72.90
2022-10-18T07:58:30.158Z,75.10
2022-10-18T08:02:01.848Z,69.40
2022-10-18T08:09:08.630Z,68.10
2022-10-18T08:12:39.602Z,73.50
2022-10-18T08:16:29.304Z,72.00
2022-10-18T08:20:11.658Z,73.20
2022-10-18T08:23:50.104Z,70.70
2022-10-18T08:27:20.916Z,68.50
2022-10-18T08:30:52.621Z,68.30
2022-10-18T08:34:24.025Z,71.80
2022-10-18T08:37:55.008Z,70.40
2022-10-18T08:42:13.971Z,72.20
2022-10-18T08:45:48.510Z,63.90
2022-10-18T08:50:06.221Z,68.10
2022-10-18T09:06:34.309Z,60.40
2022-10-18T09:10:34.274Z,56.90
2022-10-18T09:23:13.646Z,63.90
2022-10-18T09:48:48.440Z,50.70
2022-10-18T09:52:41.991Z,58.10
2022-10-18T09:56:28.326Z,46.90
2022-10-18T10:24:30.405Z,88.70
2022-10-18T10:28:19.912Z,66.80
2022-10-18T10:48:04.446Z,52.10
2022-10-18T10:52:36.565Z,61.00
2022-10-18T10:56:33.122Z,58.40
2022-10-18T11:00:41.306Z,51.60
2022-10-18T11:04:25.695Z,66.80
2022-10-18T11:24:10.821Z,55.60
2022-10-18T11:28:12.637Z,54.10
2022-10-18T11:36:28.241Z,59.50
2022-10-18T12:01:45.799Z,61.20
2022-10-18T12:05:32.525Z,54.90
2022-10-18T12:09:27.015Z,66.80
2022-10-18T12:39:32.470Z,59.70
2022-10-18T12:43:49.058Z,65.70
2022-10-18T12:47:51.936Z,58.10
2022-10-18T12:52:23.710Z,54.60
2022-10-18T13:08:10.765Z,51.40
2022-10-18T13:24:54.405Z,57.70
2022-10-18T13:37:11.685Z,59.50
2022-10-18T13:40:51.844Z,68.80
2022-10-18T13:45:03.897Z,55.80
2022-10-18T14:02:42.959Z,67.90
2022-10-18T14:18:52.426Z,64.90
2022-10-18T15:02:08.455Z,75.80
2022-10-18T15:44:13.228Z,72.60
2022-10-18T15:48:39.672Z,76.70
2022-10-18T16:00:40.739Z,71.60
2022-10-18T16:04:25.000Z,73.20
2022-10-18T16:08:00.473Z,75.00
2022-10-18T16:11:42.852Z,73.40
2022-10-18T16:15:13.699Z,71.00
2022-10-18T16:18:55.956Z,73.10
2022-10-18T16:22:31.191Z,73.10
2022-10-18T16:26:04.402Z,73.40
2022-10-18T16:29:47.507Z,72.50
2022-10-18T16:33:21.419Z,74.50
2022-10-18T16:36:56.431Z,73.80
2022-10-18T16:40:52.500Z,68.80
2022-10-18T16:44:24.348Z,70.40
2022-10-18T16:47:55.065Z,72.40
2022-10-18T16:51:27.310Z,73.80
2022-10-18T16:54:58.550Z,73.90
2022-10-18T16:58:32.982Z,74.10
2022-10-18T17:02:04.440Z,74.90
2022-10-18T17:05:36.291Z,75.20
2022-10-18T17:09:08.039Z,74.90
2022-10-18T17:12:38.622Z,75.20
2022-10-18T17:16:10.250Z,74.70
2022-10-18T17:19:44.278Z,74.80
2022-10-18T17:23:15.937Z,74.80
2022-10-18T17:26:51.334Z,75.40
2022-10-18T17:30:23.038Z,73.80
2022-10-18T17:33:54.059Z,75.90
2022-10-18T17:37:25.027Z,76.00
2022-10-18T17:41:07.604Z,76.30
2022-10-18T17:44:54.148Z,76.30
2022-10-18T17:48:27.927Z,76.30
2022-10-18T17:52:03.290Z,77.20
2022-10-18T17:55:38.113Z,77.10
2022-10-18T17:59:09.516Z,77.50
2022-10-18T18:02:41.909Z,77.40
2022-10-18T18:06:50.806Z,77.30
2022-10-18T18:10:21.731Z,76.90
2022-10-18T18:13:52.890Z,77.70
2022-10-18T18:17:33.772Z,77.80
2022-10-18T18:21:16.997Z,77.10
2022-10-18T18:24:48.965Z,76.50
2022-10-18T18:28:21.765Z,77.10
2022-10-18T18:32:04.055Z,77.60
2022-10-18T18:35:34.817Z,77.90
2022-10-18T18:39:07.095Z,78.40
2022-10-18T18:42:38.533Z,78.50
2022-10-18T18:46:10.035Z,78.00
2022-10-18T18:49:42.145Z,77.60
2022-10-18T18:53:14.036Z,77.40
2022-10-18T18:56:55.779Z,76.80
2022-10-18T19:00:26.936Z,76.40
2022-10-18T19:03:58.974Z,76.50
2022-10-18T19:07:30.193Z,76.30
2022-10-18T19:11:01.287Z,76.40
2022-10-18T19:14:34.176Z,75.00
2022-10-18T19:18:05.294Z,73.90
2022-10-18T19:21:38.397Z,72.90
2022-10-18T19:25:09.325Z,72.20
2022-10-18T19:28:40.521Z,71.60
2022-10-18T19:32:15.213Z,71.00
2022-10-18T19:35:46.564Z,70.00
2022-10-18T19:39:18.039Z,67.50
2022-10-18T19:42:50.152Z,68.40
2022-10-18T19:46:21.832Z,70.00
2022-10-18T19:49:53.713Z,70.30
2022-10-18T19:53:24.356Z,69.40
2022-10-18T19:56:57.444Z,70.70
2022-10-18T20:00:28.433Z,70.70
2022-10-18T20:04:00.312Z,70.40
2022-10-18T20:07:31.371Z,71.20
2022-10-18T20:11:02.461Z,70.90
2022-10-18T20:14:34.375Z,71.10
2022-10-18T20:18:05.378Z,70.50
2022-10-18T20:21:38.148Z,71.90
2022-10-18T20:25:09.122Z,71.70
2022-10-18T20:28:40.828Z,72.10
2022-10-18T20:32:12.645Z,70.20
2022-10-18T20:35:43.465Z,72.10
2022-10-18T20:39:16.471Z,72.50
2022-10-18T20:42:47.677Z,72.10
2022-10-18T20:46:23.792Z,73.20
2022-10-18T20:49:54.815Z,73.60
2022-10-18T20:53:26.070Z,73.20
2022-10-18T20:56:58.163Z,73.60
